Terminal Aerodrome Forecast
Issued by NWS Quad Cities IA IL

Current Version | Previous Version | Text Only | Print | Product List | Glossary On
Versions: 1 2 3 4 5 6 7 8 9 10 11 12 13 14 15 16 17 18 19 20 21
000
FTUS43 KDVN 232359
TAFMLI
TAF
KMLI 232359Z 2400/2424 30013G20KT P6SM BKN050
     FM241000 32017G25KT P6SM VCSH OVC035
     FM241600 32018G28KT P6SM BKN040=

USA.gov is the U.S. government's official web portal to all federal, state and local government web resources and services.